Time;durP1;ratioP1;P1;durP2;ratioP2;P2;SDS_P1;SDS_P2;PMS_P1;PMS_P2;Temp;Humidity;BMP_temperature;BMP_pressure;BME280_temperature;BME280_humidity;BME280_pressure;Samples;Min_cycle;Max_cycle;Signal;HPM_P1;HPM_P2
2021/06/20 00:01:33;;;;;;;7.62;5.97;;;;;;;21.84;62.04;97954.17;1651330;85;28063;-87
2021/06/20 00:04:00;;;;;;;7.97;5.47;;;;;;;21.82;62.09;97953.53;1679097;84;28067;-86
2021/06/20 00:06:34;;;;;;;6.72;5.42;;;;;;;21.74;62.14;97960.33;1682622;84;28066;-86
2021/06/20 00:09:03;;;;;;;7.40;5.62;;;;;;;21.65;62.23;97957.48;1646552;85;28127;-87
2021/06/20 00:11:29;;;;;;;6.03;4.83;;;;;;;21.55;62.31;97951.60;1677240;83;28084;-86
2021/06/20 00:13:56;;;;;;;6.97;5.28;;;;;;;21.45;62.38;97943.09;1680611;83;28057;-85
2021/06/20 00:16:23;;;;;;;8.80;5.45;;;;;;;21.44;62.52;97952.92;1685694;84;28140;-86
2021/06/20 00:18:57;;;;;;;6.12;5.00;;;;;;;21.46;62.61;97946.08;1677999;84;28079;-87
2021/06/20 00:21:25;;;;;;;6.25;4.83;;;;;;;21.42;62.70;97949.64;1682540;84;28098;-87
2021/06/20 00:23:51;;;;;;;8.15;4.62;;;;;;;21.49;62.78;97947.84;1678876;83;28226;-87
2021/06/20 00:26:18;;;;;;;6.12;4.53;;;;;;;21.46;62.85;97940.25;1679468;83;28159;-86
2021/06/20 00:28:45;;;;;;;7.28;5.10;;;;;;;21.38;62.88;97940.88;1679864;83;28083;-88
2021/06/20 00:31:13;;;;;;;7.22;4.65;;;;;;;21.35;62.91;97942.57;1682113;83;28166;-87
2021/06/20 00:33:41;;;;;;;6.60;5.10;;;;;;;21.22;62.96;97948.05;1681500;83;28154;-87
2021/06/20 00:36:09;;;;;;;6.45;5.17;;;;;;;21.12;63.06;97944.82;1682793;83;28505;-87
2021/06/20 00:38:35;;;;;;;5.95;5.15;;;;;;;20.99;63.15;97942.02;1679619;83;28134;-87
2021/06/20 00:41:03;;;;;;;6.35;5.40;;;;;;;20.81;63.28;97938.39;1677826;83;28092;-87
2021/06/20 00:43:30;;;;;;;8.48;5.45;;;;;;;20.73;63.42;97933.67;1677983;83;28096;-87
2021/06/20 00:46:05;;;;;;;6.25;5.37;;;;;;;20.76;63.58;97933.30;1669107;83;28201;-88
2021/06/20 00:48:31;;;;;;;8.30;5.85;;;;;;;20.81;63.71;97931.73;1649802;85;28324;-88
2021/06/20 00:50:58;;;;;;;6.70;5.55;;;;;;;20.83;63.80;97935.55;1677869;84;28075;-87
2021/06/20 00:53:25;;;;;;;9.50;5.97;;;;;;;20.79;63.87;97935.58;1683900;83;28089;-87
2021/06/20 00:55:58;;;;;;;7.65;5.50;;;;;;;20.73;63.91;97932.34;1676354;83;28218;-89
2021/06/20 00:58:25;;;;;;;6.10;4.90;;;;;;;20.68;63.99;97933.38;1679273;83;28079;-89
2021/06/20 01:00:52;;;;;;;7.12;5.40;;;;;;;20.65;64.14;97928.44;1673196;83;28084;-88
2021/06/20 01:03:21;;;;;;;7.12;4.47;;;;;;;20.66;64.26;97924.77;1680470;83;28112;-87
2021/06/20 01:05:48;;;;;;;5.53;4.80;;;;;;;20.66;64.36;97922.11;1679337;83;28180;-87
2021/06/20 01:08:17;;;;;;;6.90;4.70;;;;;;;20.72;64.49;97922.71;1677215;83;28187;-86
2021/06/20 01:10:44;;;;;;;6.08;5.25;;;;;;;20.84;64.57;97919.89;1678273;83;28086;-87
2021/06/20 01:13:13;;;;;;;5.97;4.97;;;;;;;20.91;64.61;97913.33;1678053;83;28119;-87
2021/06/20 01:15:41;;;;;;;7.65;5.37;;;;;;;20.92;64.61;97912.33;1674149;83;28071;-86
2021/06/20 01:18:08;;;;;;;7.53;5.50;;;;;;;20.83;64.62;97906.30;1685101;83;28091;-86
2021/06/20 01:20:35;;;;;;;6.67;5.20;;;;;;;20.71;64.63;97907.26;1678702;83;28171;-87
2021/06/20 01:23:01;;;;;;;5.90;5.03;;;;;;;20.60;64.67;97902.90;1673735;83;28187;-86
2021/06/20 01:25:29;;;;;;;8.53;5.35;;;;;;;20.52;64.70;97901.64;1674011;84;28077;-86
2021/06/20 01:28:01;;;;;;;7.42;5.83;;;;;;;20.44;64.79;97913.20;1679962;84;28051;-86
2021/06/20 01:30:30;;;;;;;7.33;5.40;;;;;;;20.37;64.90;97911.77;1681789;83;43040;-86
2021/06/20 01:32:59;;;;;;;7.45;5.47;;;;;;;20.41;65.04;97911.72;1676638;84;28079;-86
2021/06/20 01:35:26;;;;;;;9.55;5.85;;;;;;;20.50;65.16;97923.12;1676367;84;28126;-86
2021/06/20 01:37:54;;;;;;;6.78;5.28;;;;;;;20.56;65.22;97916.24;1676745;84;28087;-86
2021/06/20 01:40:22;;;;;;;7.95;6.00;;;;;;;20.59;65.28;97911.88;1681197;84;28118;-86
2021/06/20 01:42:49;;;;;;;6.05;5.17;;;;;;;20.59;65.29;97912.70;1680929;84;28038;-86
2021/06/20 01:45:19;;;;;;;8.00;5.30;;;;;;;20.61;65.31;97907.21;1678955;84;28162;-86
2021/06/20 01:47:52;;;;;;;6.62;5.05;;;;;;;20.57;65.34;97901.92;1680472;84;28050;-86
2021/06/20 01:50:19;;;;;;;7.30;5.35;;;;;;;20.49;65.36;97900.69;1677111;83;28184;-88
2021/06/20 01:52:46;;;;;;;6.80;5.37;;;;;;;20.40;65.41;97896.77;1677200;84;28170;-87
2021/06/20 01:55:15;;;;;;;8.25;5.30;;;;;;;20.42;65.50;97885.97;1678802;84;28117;-86
2021/06/20 01:57:44;;;;;;;7.25;5.80;;;;;;;20.47;65.55;97886.24;1676679;84;28137;-86
2021/06/20 02:00:19;;;;;;;7.83;4.97;;;;;;;20.51;65.57;97881.41;1676408;85;28131;-87
2021/06/20 02:02:54;;;;;;;5.70;4.87;;;;;;;20.53;65.58;97879.38;1678975;84;28150;-87
2021/06/20 02:05:27;;;;;;;9.75;5.40;;;;;;;20.53;65.61;97876.71;1681478;84;28149;-87
2021/06/20 02:07:53;;;;;;;5.47;4.80;;;;;;;20.55;65.62;97878.70;1680012;83;28174;-88
2021/06/20 02:10:26;;;;;;;8.68;5.62;;;;;;;20.49;65.64;97873.61;1676705;84;28046;-87
2021/06/20 02:12:52;;;;;;;7.55;6.67;;;;;;;20.44;65.66;97875.48;1676894;85;28109;-87
2021/06/20 02:15:23;;;;;;;9.18;6.15;;;;;;;20.38;65.69;97885.52;1678730;84;28216;-87
2021/06/20 02:17:50;;;;;;;8.45;5.78;;;;;;;20.26;65.73;97876.30;1683713;83;28004;-87
2021/06/20 02:20:20;;;;;;;6.85;5.85;;;;;;;20.16;65.76;97869.60;1680493;84;28075;-87
2021/06/20 02:22:51;;;;;;;7.95;6.10;;;;;;;20.10;65.82;97880.45;1680984;83;28100;-87
2021/06/20 02:25:18;;;;;;;6.42;5.75;;;;;;;20.10;65.87;97874.31;1683620;82;28143;-87
2021/06/20 02:27:52;;;;;;;6.60;5.60;;;;;;;20.10;65.94;97882.28;1667574;85;28076;-87
2021/06/20 02:30:19;;;;;;;7.12;5.40;;;;;;;20.09;66.02;97881.95;1666895;85;28002;-87
2021/06/20 02:32:51;;;;;;;7.67;5.67;;;;;;;20.07;66.10;97878.17;1679746;84;28079;-87
2021/06/20 02:35:21;;;;;;;7.05;5.28;;;;;;;19.98;66.14;97880.05;1676873;84;28030;-87
2021/06/20 02:37:57;;;;;;;9.23;4.10;;;;;;;19.92;66.22;97879.94;1681795;84;28007;-87
2021/06/20 02:40:24;;;;;;;8.40;6.40;;;;;;;19.85;66.28;97884.34;1675092;84;35772;-87
2021/06/20 02:42:50;;;;;;;7.90;5.30;;;;;;;19.87;66.41;97885.80;1678811;84;28072;-87
2021/06/20 02:45:19;;;;;;;7.47;5.97;;;;;;;19.96;66.51;97885.23;1683576;84;28010;-87
2021/06/20 02:47:49;;;;;;;6.50;5.47;;;;;;;19.99;66.57;97888.35;1680661;84;28118;-87
2021/06/20 02:50:18;;;;;;;9.48;6.10;;;;;;;20.07;66.65;97889.30;1680149;84;28112;-87
2021/06/20 02:52:46;;;;;;;7.87;5.67;;;;;;;20.03;66.68;97884.83;1680898;84;28116;-87
2021/06/20 02:55:13;;;;;;;8.63;5.70;;;;;;;19.96;66.75;97878.09;1683006;84;28179;-87
2021/06/20 02:57:42;;;;;;;6.95;5.20;;;;;;;19.93;66.81;97888.23;1678687;84;28077;-87
2021/06/20 03:00:10;;;;;;;6.90;4.92;;;;;;;19.92;66.92;97879.94;1681210;84;28135;-87
2021/06/20 03:02:38;;;;;;;6.42;5.33;;;;;;;19.84;66.98;97884.84;1683946;83;28073;-87
2021/06/20 03:05:08;;;;;;;5.67;5.17;;;;;;;19.83;67.05;97887.66;1682330;84;28095;-87
2021/06/20 03:07:34;;;;;;;7.20;5.50;;;;;;;19.95;67.14;97884.41;1676602;84;28142;-87
2021/06/20 03:10:04;;;;;;;6.97;5.67;;;;;;;20.03;67.19;97886.98;1680477;83;28063;-87
2021/06/20 03:12:43;;;;;;;8.53;6.00;;;;;;;20.06;67.20;97889.80;1682581;84;28091;-87
2021/06/20 03:15:10;;;;;;;8.88;6.25;;;;;;;20.08;67.22;97891.75;1681118;84;28240;-87
2021/06/20 03:17:37;;;;;;;10.95;6.03;;;;;;;20.05;67.27;97888.14;1681083;83;28112;-87
2021/06/20 03:20:23;;;;;;;6.95;6.25;;;;;;;20.03;67.27;97888.80;1681765;83;28042;-88
2021/06/20 03:22:52;;;;;;;7.42;5.78;;;;;;;20.06;67.30;97892.45;1681368;84;28115;-87
2021/06/20 03:25:23;;;;;;;8.70;5.75;;;;;;;20.10;67.33;97891.08;1670290;84;28008;-87
2021/06/20 03:27:59;;;;;;;7.97;5.90;;;;;;;20.15;67.36;97895.84;1683186;84;28098;-87
2021/06/20 03:30:35;;;;;;;8.35;5.95;;;;;;;20.20;67.41;97895.63;1684292;83;28177;-87
2021/06/20 03:33:02;;;;;;;6.42;5.10;;;;;;;20.19;67.49;97891.31;1684733;83;28173;-87
2021/06/20 03:35:29;;;;;;;5.85;5.25;;;;;;;20.14;67.57;97884.39;1683940;83;28079;-87
2021/06/20 03:37:55;;;;;;;7.67;5.47;;;;;;;20.15;67.66;97896.67;1679996;83;28101;-86
2021/06/20 03:40:28;;;;;;;12.43;6.85;;;;;;;20.30;67.79;97896.19;1683286;84;28091;-86
2021/06/20 03:42:57;;;;;;;;;;;;;;;20.44;67.83;97899.41;1687130;83;28104;-86
2021/06/20 03:45:23;;;;;;;9.78;5.90;;;;;;;20.62;67.91;97896.91;1660225;85;24497;-87
2021/06/20 03:47:50;;;;;;;7.37;5.72;;;;;;;20.78;67.91;97894.05;1682279;83;28081;-86
2021/06/20 03:50:16;;;;;;;6.15;5.20;;;;;;;20.99;67.95;97887.47;1638983;85;28066;-86
2021/06/20 03:52:45;;;;;;;9.50;5.80;;;;;;;21.14;67.94;97888.29;1651549;85;28162;-86
2021/06/20 03:55:12;;;;;;;8.38;5.55;;;;;;;21.30;67.89;97900.55;1681417;84;28085;-86
2021/06/20 03:57:40;;;;;;;7.67;5.62;;;;;;;21.43;67.85;97901.20;1688057;84;28061;-86
2021/06/20 04:00:16;;;;;;;6.10;5.10;;;;;;;21.52;67.79;97903.56;1690087;83;28077;-86
2021/06/20 04:02:42;;;;;;;6.60;5.28;;;;;;;21.59;67.72;97904.96;1684202;83;28131;-86
2021/06/20 04:05:15;;;;;;;7.03;5.37;;;;;;;21.65;67.69;97904.20;1673698;84;28147;-86
2021/06/20 04:07:44;;;;;;;8.90;5.97;;;;;;;21.68;67.66;97906.48;1671527;85;28140;-86
2021/06/20 04:10:13;;;;;;;5.42;4.70;;;;;;;21.78;67.64;97905.66;1639786;86;28007;-85
2021/06/20 04:12:39;;;;;;;6.90;5.72;;;;;;;21.87;67.64;97905.86;1684400;83;28139;-86
2021/06/20 04:15:06;;;;;;;7.00;5.40;;;;;;;21.99;67.65;97892.84;1683685;83;28069;-86
2021/06/20 04:17:34;;;;;;;7.25;5.83;;;;;;;22.13;67.66;97889.80;1681021;84;28099;-86
2021/06/20 04:20:04;;;;;;;7.22;5.40;;;;;;;22.35;67.67;97886.06;1676240;83;28069;-87
2021/06/20 04:22:30;;;;;;;8.43;5.83;;;;;;;22.61;67.62;97881.40;1688163;83;28166;-87
2021/06/20 04:25:00;;;;;;;7.35;5.30;;;;;;;22.81;67.54;97873.02;1688414;83;28083;-87
2021/06/20 04:27:26;;;;;;;8.68;5.55;;;;;;;22.92;67.37;97877.28;1673685;84;28098;-87
2021/06/20 04:29:52;;;;;;;;;;;;;;;22.99;67.27;97881.83;1671559;84;56570;-87
2021/06/20 04:32:19;;;;;;;;;;;;;;;23.01;67.15;97874.45;1657200;83;199434;-86
2021/06/20 04:34:45;;;;;;;7.60;5.45;;;;;;;23.02;67.03;97881.45;1660589;84;124294;-87
2021/06/20 04:37:11;;;;;;;10.35;5.53;;;;;;;23.08;66.96;97879.28;1660046;84;28173;-87
2021/06/20 04:39:37;;;;;;;;;;;;;;;23.18;66.87;97881.92;1678252;84;28105;-87
2021/06/20 04:42:06;;;;;;;14.05;6.37;;;;;;;23.28;66.79;97882.87;1657782;84;22042;-86
2021/06/20 04:44:45;;;;;;;6.10;5.22;;;;;;;23.38;66.67;97892.66;1670020;84;28182;-86
2021/06/20 04:47:18;;;;;;;7.28;5.90;;;;;;;23.46;66.57;97892.99;1660665;83;28068;-86
2021/06/20 04:49:44;;;;;;;7.45;6.28;;;;;;;23.59;66.47;97893.86;1670228;84;28127;-86
2021/06/20 04:52:14;;;;;;;8.10;5.92;;;;;;;23.64;66.29;97888.73;1611704;86;28168;-86
2021/06/20 04:54:49;;;;;;;9.25;5.42;;;;;;;23.64;66.12;97891.41;1648657;85;28078;-86
2021/06/20 04:57:19;;;;;;;7.65;5.53;;;;;;;23.61;66.01;97889.15;1666517;83;28160;-86
2021/06/20 04:59:47;;;;;;;7.72;6.08;;;;;;;23.58;65.97;97894.05;1665611;84;28056;-86
2021/06/20 05:02:14;;;;;;;9.30;5.92;;;;;;;23.48;65.94;97899.80;1664755;84;28150;-86
2021/06/20 05:04:41;;;;;;;9.63;6.40;;;;;;;23.47;65.95;97905.33;1663487;84;28164;-86
2021/06/20 05:07:11;;;;;;;6.78;5.55;;;;;;;23.50;65.97;97912.95;1671965;84;28195;-86
2021/06/20 05:09:38;;;;;;;10.82;6.40;;;;;;;23.53;65.89;97910.70;1664360;84;28091;-86
2021/06/20 05:12:07;;;;;;;10.48;6.15;;;;;;;23.54;65.78;97916.36;1673857;83;28074;-86
2021/06/20 05:14:43;;;;;;;8.25;6.08;;;;;;;23.53;65.68;97916.03;1662016;84;28107;-86
2021/06/20 05:17:18;;;;;;;10.68;5.92;;;;;;;23.50;65.60;97919.64;1669037;84;28095;-86
2021/06/20 05:19:45;;;;;;;7.25;6.17;;;;;;;23.41;65.40;97925.62;1668502;85;28208;-86
2021/06/20 05:22:12;;;;;;;8.60;6.40;;;;;;;23.45;65.30;97924.73;1660833;84;28098;-86
2021/06/20 05:24:44;;;;;;;7.17;6.33;;;;;;;23.53;65.24;97936.08;1666638;83;28060;-86
2021/06/20 05:27:11;;;;;;;7.60;5.97;;;;;;;23.59;65.19;97937.94;1669702;83;28114;-86
2021/06/20 05:29:42;;;;;;;9.23;6.25;;;;;;;23.65;65.13;97947.00;1651056;85;28050;-86
2021/06/20 05:32:08;;;;;;;7.78;6.12;;;;;;;23.68;65.07;97953.27;1682593;84;28034;-86
2021/06/20 05:34:38;;;;;;;7.55;6.08;;;;;;;23.69;64.99;97954.92;1679487;83;28174;-86
2021/06/20 05:37:04;;;;;;;8.93;6.70;;;;;;;23.71;64.96;97960.38;1681895;83;28081;-86
2021/06/20 05:39:31;;;;;;;9.78;6.67;;;;;;;23.69;64.95;97964.27;1679479;84;28140;-86
2021/06/20 05:41:59;;;;;;;7.92;5.62;;;;;;;23.68;64.95;97961.28;1675681;84;28060;-86
2021/06/20 05:44:29;;;;;;;8.98;6.28;;;;;;;23.64;64.95;97960.87;1675984;83;28166;-86
2021/06/20 05:46:56;;;;;;;9.88;6.85;;;;;;;23.56;64.88;97966.41;1678773;84;28091;-86
2021/06/20 05:49:24;;;;;;;7.45;6.03;;;;;;;23.55;64.90;97962.09;1684417;82;28158;-87
2021/06/20 05:51:52;;;;;;;9.03;6.55;;;;;;;23.49;64.86;97963.39;1686933;83;28024;-87
2021/06/20 05:54:25;;;;;;;7.12;5.95;;;;;;;23.50;64.86;97956.52;1684005;84;28085;-87
2021/06/20 05:56:52;;;;;;;8.00;5.85;;;;;;;23.56;64.88;97961.06;1684604;84;28173;-87
2021/06/20 05:59:19;;;;;;;7.62;5.87;;;;;;;23.64;64.89;97959.53;1682146;84;28002;-87
2021/06/20 06:01:45;;;;;;;8.50;6.75;;;;;;;23.69;64.91;97960.26;1678160;84;28159;-86
2021/06/20 06:04:11;;;;;;;8.15;5.90;;;;;;;23.72;64.85;97963.38;1682321;84;28052;-86
2021/06/20 06:06:38;;;;;;;9.63;6.25;;;;;;;23.74;64.84;97957.30;1684056;84;28080;-86
2021/06/20 06:09:05;;;;;;;8.13;5.75;;;;;;;23.83;64.86;97956.61;1669313;84;28171;-86
2021/06/20 06:11:31;;;;;;;8.88;5.65;;;;;;;23.85;64.84;97958.55;1678705;84;28031;-86
2021/06/20 06:13:57;;;;;;;8.68;6.03;;;;;;;23.85;64.82;97959.88;1683229;84;28176;-86
2021/06/20 06:16:24;;;;;;;6.50;5.37;;;;;;;23.86;64.79;97952.69;1680485;84;28120;-87
2021/06/20 06:18:50;;;;;;;7.00;6.00;;;;;;;23.89;64.75;97956.31;1676434;84;28026;-87
2021/06/20 06:21:16;;;;;;;11.95;7.00;;;;;;;23.88;64.70;97945.30;1682790;83;28117;-87
2021/06/20 06:23:43;;;;;;;8.80;5.60;;;;;;;23.89;64.65;97949.13;1683060;84;28077;-87
2021/06/20 06:26:13;;;;;;;8.85;6.75;;;;;;;23.91;64.66;97944.89;1684924;84;28136;-86
2021/06/20 06:28:39;;;;;;;8.03;6.05;;;;;;;23.92;64.68;97946.54;1685919;83;28061;-87
2021/06/20 06:31:12;;;;;;;8.80;6.45;;;;;;;24.03;64.77;97943.27;1680808;83;28127;-87
2021/06/20 06:33:38;;;;;;;8.53;6.22;;;;;;;24.13;64.83;97936.99;1684962;83;28092;-87
2021/06/20 06:36:05;;;;;;;7.70;5.90;;;;;;;24.20;64.89;97933.85;1689316;83;28065;-87
2021/06/20 06:38:32;;;;;;;7.65;5.70;;;;;;;24.29;64.96;97936.62;1684631;83;28032;-87
2021/06/20 06:40:59;;;;;;;6.92;6.17;;;;;;;24.35;65.02;97937.64;1685575;83;28087;-87
2021/06/20 06:43:26;;;;;;;8.60;6.62;;;;;;;24.41;65.06;97934.14;1685259;83;28127;-87
2021/06/20 06:45:52;;;;;;;6.62;5.85;;;;;;;24.45;65.03;97937.53;1693604;83;28154;-87
2021/06/20 06:48:19;;;;;;;6.72;6.12;;;;;;;24.52;65.04;97935.69;1680513;83;28084;-87
2021/06/20 06:50:52;;;;;;;7.97;6.30;;;;;;;24.59;65.00;97939.19;1684023;83;28075;-87
2021/06/20 06:53:21;;;;;;;7.83;6.62;;;;;;;24.67;64.96;97934.63;1681399;83;28012;-87
2021/06/20 06:55:48;;;;;;;7.20;6.28;;;;;;;24.74;64.94;97931.43;1688480;83;28058;-87
2021/06/20 06:58:15;;;;;;;7.10;5.95;;;;;;;24.86;65.02;97925.74;1681033;83;28082;-87
2021/06/20 07:00:41;;;;;;;7.25;6.10;;;;;;;24.94;65.00;97918.33;1678463;83;28091;-87
2021/06/20 07:03:08;;;;;;;6.03;5.30;;;;;;;25.01;64.92;97929.02;1687287;83;28102;-87
2021/06/20 07:05:34;;;;;;;10.38;6.53;;;;;;;25.06;64.78;97922.52;1686137;83;28091;-87
2021/06/20 07:08:00;;;;;;;7.35;6.08;;;;;;;25.13;64.63;97927.34;1685639;83;28021;-87
2021/06/20 07:10:27;;;;;;;7.97;6.00;;;;;;;25.25;64.55;97922.97;1688592;83;28147;-87
2021/06/20 07:12:53;;;;;;;8.08;6.42;;;;;;;25.42;64.46;97920.08;1684495;83;28064;-87
2021/06/20 07:15:20;;;;;;;8.13;6.15;;;;;;;25.54;64.34;97916.73;1660495;83;28012;-87
2021/06/20 07:17:46;;;;;;;12.10;6.55;;;;;;;25.68;64.26;97919.69;1685419;83;28097;-87
2021/06/20 07:20:15;;;;;;;8.68;6.00;;;;;;;25.83;64.12;97918.86;1681767;83;28106;-87
2021/06/20 07:22:50;;;;;;;6.85;6.10;;;;;;;26.00;63.97;97911.94;1687027;83;28088;-87
2021/06/20 07:25:20;;;;;;;7.90;5.45;;;;;;;26.16;63.78;97908.71;1686286;83;28069;-87
2021/06/20 07:27:49;;;;;;;7.33;5.62;;;;;;;26.33;63.55;97906.85;1703261;82;28118;-87
2021/06/20 07:30:18;;;;;;;6.92;5.72;;;;;;;26.46;63.33;97902.17;1683099;83;28072;-87
2021/06/20 07:32:45;;;;;;;8.53;6.12;;;;;;;26.52;63.03;97903.15;1681319;84;28064;-87
2021/06/20 07:35:12;;;;;;;6.72;5.87;;;;;;;26.60;62.83;97894.82;1689946;83;28115;-87
2021/06/20 07:37:42;;;;;;;6.45;5.58;;;;;;;26.67;62.66;97901.47;1683353;83;28143;-87
2021/06/20 07:40:15;;;;;;;7.78;6.00;;;;;;;26.69;62.42;97900.19;1676760;84;28191;-87
2021/06/20 07:42:42;;;;;;;6.75;5.17;;;;;;;26.74;62.07;97899.00;1684130;83;28169;-87
2021/06/20 07:45:09;;;;;;;7.33;5.95;;;;;;;26.82;61.86;97893.35;1677970;84;28098;-87
2021/06/20 07:47:41;;;;;;;6.65;5.87;;;;;;;26.81;61.65;97900.28;1677205;84;28175;-87
2021/06/20 07:50:14;;;;;;;10.30;5.72;;;;;;;26.87;61.50;97898.05;1681103;84;28062;-87
2021/06/20 07:52:41;;;;;;;8.55;6.17;;;;;;;26.92;61.32;97894.19;1680714;84;28111;-88
2021/06/20 07:55:09;;;;;;;6.30;5.70;;;;;;;26.96;61.09;97900.23;1680034;83;28048;-88
2021/06/20 07:57:38;;;;;;;6.25;5.37;;;;;;;27.05;60.87;97896.73;1680934;82;28092;-88
2021/06/20 08:00:08;;;;;;;7.62;5.72;;;;;;;27.12;60.63;97900.14;1674488;83;28110;-88
2021/06/20 08:02:36;;;;;;;6.72;5.97;;;;;;;27.14;60.35;97894.03;1684242;84;28073;-90
2021/06/20 08:05:06;;;;;;;8.48;5.47;;;;;;;27.20;60.15;97895.00;1678948;84;28099;-86
2021/06/20 08:07:35;;;;;;;8.10;6.00;;;;;;;27.27;60.00;97887.68;1677528;84;28109;-86
2021/06/20 08:10:03;;;;;;;5.85;5.33;;;;;;;27.38;59.86;97892.29;1675975;83;28140;-86
2021/06/20 08:12:30;;;;;;;7.10;5.58;;;;;;;27.47;59.55;97885.02;1681869;84;28094;-86
2021/06/20 08:14:58;;;;;;;5.87;5.08;;;;;;;27.52;59.17;97880.33;1671447;84;28087;-86
2021/06/20 08:17:25;;;;;;;6.40;4.92;;;;;;;27.54;58.81;97872.05;1676721;84;28107;-86
2021/06/20 08:19:52;;;;;;;6.65;5.20;;;;;;;27.56;58.38;97874.78;1679103;83;28235;-89
2021/06/20 08:22:19;;;;;;;7.35;5.00;;;;;;;27.62;58.11;97881.94;1676511;83;28087;-87
2021/06/20 08:24:50;;;;;;;7.62;5.28;;;;;;;27.72;57.89;97888.92;1677188;84;28012;-88
2021/06/20 08:27:19;;;;;;;7.28;5.40;;;;;;;27.86;57.77;97894.41;1682202;84;28152;-89
2021/06/20 08:29:53;;;;;;;5.75;5.00;;;;;;;27.99;57.63;97891.20;1684504;84;28118;-89
2021/06/20 08:32:19;;;;;;;6.25;5.25;;;;;;;28.08;57.40;97887.97;1678318;83;28077;-89
2021/06/20 08:34:45;;;;;;;5.10;4.60;;;;;;;28.09;56.93;97883.41;1685407;83;28092;-88
2021/06/20 08:37:12;;;;;;;5.47;4.58;;;;;;;28.08;56.69;97881.76;1682479;83;28060;-89
2021/06/20 08:39:38;;;;;;;7.45;5.67;;;;;;;28.08;56.43;97881.76;1684540;83;28037;-88
2021/06/20 08:42:06;;;;;;;6.20;5.62;;;;;;;28.08;56.17;97877.20;1691167;83;28136;-89
2021/06/20 08:44:33;;;;;;;6.95;5.25;;;;;;;28.10;55.95;97874.26;1685130;83;28076;-88
2021/06/20 08:47:04;;;;;;;8.78;6.28;;;;;;;28.17;55.86;97874.48;1686143;83;28029;-89
2021/06/20 08:49:33;;;;;;;7.90;6.05;;;;;;;28.20;55.68;97875.34;1692888;83;28118;-90
2021/06/20 08:52:00;;;;;;;8.00;5.55;;;;;;;28.23;55.55;97872.73;1688727;83;28076;-89
2021/06/20 08:54:30;;;;;;;7.50;5.90;;;;;;;28.27;55.55;97875.24;1682301;83;28108;-89
2021/06/20 08:57:03;;;;;;;6.53;5.33;;;;;;;28.27;55.37;97872.03;1682212;83;28194;-89
2021/06/20 08:59:33;;;;;;;7.67;6.47;;;;;;;28.26;55.10;97869.03;1681605;83;28146;-89
2021/06/20 09:02:03;;;;;;;6.10;5.50;;;;;;;28.26;54.94;97860.14;1689233;83;28081;-89
2021/06/20 09:04:34;;;;;;;6.77;5.60;;;;;;;28.31;54.84;97858.94;1687825;83;28190;-90
2021/06/20 09:07:03;;;;;;;6.97;5.90;;;;;;;28.41;54.79;97858.34;1681477;83;28150;-90
2021/06/20 09:09:34;;;;;;;7.95;5.90;;;;;;;28.49;54.69;97860.14;1689470;83;28164;-90
2021/06/20 09:12:13;;;;;;;;;;;;;;;28.57;54.53;97855.77;1692246;84;28101;-89
2021/06/20 09:14:48;;;;;;;6.25;5.45;;;;;;;28.64;54.38;97842.97;1653466;85;21982;-92
2021/06/20 09:17:28;;;;;;;8.40;5.58;;;;;;;28.68;54.14;97836.60;1685728;83;28161;-91
2021/06/20 09:19:59;;;;;;;5.92;5.40;;;;;;;28.70;53.94;97835.30;1668809;83;28092;-91
2021/06/20 09:22:26;;;;;;;;;;;;;;;28.72;53.70;97831.02;1673864;84;28082;-91
2021/06/20 09:25:08;;;;;;;5.58;5.03;;;;;;;28.74;53.59;97833.00;1665142;85;25248;-90
2021/06/20 09:27:35;;;;;;;7.67;5.78;;;;;;;28.76;53.39;97839.47;1628907;85;28080;-91
2021/06/20 09:30:13;;;;;;;5.30;4.80;;;;;;;28.74;53.06;97842.95;1657769;84;28120;-90
2021/06/20 09:32:42;;;;;;;6.75;4.97;;;;;;;28.77;52.97;97842.45;1691635;83;28131;-91
2021/06/20 09:35:11;;;;;;;9.43;5.30;;;;;;;28.82;52.89;97846.08;1684019;82;28082;-90
2021/06/20 09:37:37;;;;;;;6.12;5.22;;;;;;;28.89;52.85;97852.69;1676067;84;28034;-91
2021/06/20 09:40:12;;;;;;;7.42;4.75;;;;;;;28.97;52.75;97850.95;1676916;84;28073;-92
2021/06/20 09:42:40;;;;;;;8.20;5.40;;;;;;;29.03;52.65;97856.21;1680654;84;28165;-89
2021/06/20 09:45:09;;;;;;;6.50;4.75;;;;;;;29.03;52.34;97860.78;1677367;83;28162;-91
2021/06/20 09:47:41;;;;;;;7.05;4.78;;;;;;;29.06;52.24;97857.63;1681341;83;28147;-90
2021/06/20 09:50:10;;;;;;;8.00;4.90;;;;;;;29.13;52.13;97850.75;1678973;84;28207;-90
2021/06/20 09:52:40;;;;;;;6.25;5.65;;;;;;;29.24;52.11;97851.24;1678681;84;28071;-90
2021/06/20 09:55:12;;;;;;;7.62;5.25;;;;;;;29.34;52.07;97853.63;1675120;83;28083;-91
2021/06/20 09:57:41;;;;;;;6.37;5.55;;;;;;;29.39;51.78;97851.56;1677765;84;28121;-90
2021/06/20 10:00:08;;;;;;;8.83;5.15;;;;;;;29.41;51.59;97856.98;1672334;84;28495;-90
2021/06/20 10:02:39;;;;;;;5.33;4.80;;;;;;;29.49;51.55;97857.13;1683276;84;28075;-90
2021/06/20 10:05:07;;;;;;;5.90;5.30;;;;;;;29.50;51.33;97856.90;1682455;83;28067;-90
2021/06/20 10:07:34;;;;;;;5.33;4.83;;;;;;;29.46;51.05;97854.91;1676340;85;28090;-89
2021/06/20 10:10:02;;;;;;;5.78;4.53;;;;;;;29.45;50.88;97856.81;1678324;84;28077;-90
2021/06/20 10:12:29;;;;;;;9.13;5.33;;;;;;;29.49;50.80;97849.86;1682944;83;28074;-90
2021/06/20 10:14:58;;;;;;;6.65;5.05;;;;;;;29.55;50.69;97852.66;1684858;85;28087;-90
2021/06/20 10:17:34;;;;;;;6.53;5.67;;;;;;;29.60;50.61;97848.69;1680524;85;28114;-90
2021/06/20 10:20:04;;;;;;;8.10;5.60;;;;;;;29.67;50.49;97839.40;1671370;83;28132;-90
2021/06/20 10:22:35;;;;;;;6.05;5.17;;;;;;;29.80;50.46;97839.06;1676700;83;28161;-90
2021/06/20 10:25:03;;;;;;;6.78;5.30;;;;;;;29.86;50.33;97837.27;1676967;84;28137;-90
2021/06/20 10:27:39;;;;;;;5.87;5.28;;;;;;;29.94;50.24;97839.61;1673572;84;28090;-91
2021/06/20 10:30:11;;;;;;;5.55;4.70;;;;;;;30.07;50.21;97842.49;1664447;83;28463;-90
2021/06/20 10:32:46;;;;;;;8.83;5.35;;;;;;;30.10;49.95;97845.53;1656787;85;28174;-90
2021/06/20 10:35:24;;;;;;;8.48;5.37;;;;;;;30.20;49.88;97842.98;1647955;84;28115;-90
2021/06/20 10:37:52;;;;;;;6.22;4.78;;;;;;;30.32;49.72;97841.55;1672857;83;28145;-89
2021/06/20 10:40:30;;;;;;;6.55;5.25;;;;;;;30.40;49.49;97843.81;1647477;84;28027;-89
2021/06/20 10:42:59;;;;;;;5.97;5.05;;;;;;;30.45;49.29;97839.83;1680940;84;28062;-89
2021/06/20 10:45:35;;;;;;;6.83;5.10;;;;;;;30.52;49.11;97839.69;1680558;82;28128;-89
2021/06/20 10:48:23;;;;;;;5.53;5.03;;;;;;;30.67;49.10;97841.24;1680517;83;28061;-90
2021/06/20 10:50:58;;;;;;;5.55;5.05;;;;;;;30.81;49.04;97841.70;1688750;83;28162;-90
2021/06/20 10:53:26;;;;;;;6.70;4.97;;;;;;;30.86;48.74;97836.36;1678601;84;28091;-90
2021/06/20 10:55:58;;;;;;;5.28;4.85;;;;;;;30.78;48.30;97837.61;1676702;84;28138;-89
2021/06/20 10:58:34;;;;;;;5.75;5.05;;;;;;;30.69;48.09;97832.36;1687698;82;28053;-90
2021/06/20 11:01:12;;;;;;;5.30;4.80;;;;;;;30.68;47.93;97834.25;1688577;84;28105;-90
2021/06/20 11:03:48;;;;;;;7.12;5.05;;;;;;;30.67;47.81;97827.20;1682065;82;28501;-90
2021/06/20 11:06:17;;;;;;;6.70;4.62;;;;;;;30.70;47.66;97829.42;1680267;84;28121;-89
2021/06/20 11:08:55;;;;;;;7.37;5.17;;;;;;;30.69;47.47;97816.98;1680545;83;28089;-91
2021/06/20 11:11:24;;;;;;;5.80;5.20;;;;;;;30.79;47.46;97813.58;1679593;84;28109;-90
2021/06/20 11:14:00;;;;;;;5.87;4.85;;;;;;;30.88;47.34;97808.53;1676773;84;28184;-91
2021/06/20 11:16:33;;;;;;;6.95;4.83;;;;;;;30.84;47.03;97808.77;1675899;84;28127;-90
2021/06/20 11:19:09;;;;;;;5.10;4.60;;;;;;;30.76;46.61;97808.69;1676002;84;28136;-91
2021/06/20 11:21:44;;;;;;;5.67;5.08;;;;;;;30.70;46.44;97806.98;1685808;84;28021;-90
2021/06/20 11:24:15;;;;;;;6.37;4.85;;;;;;;30.74;46.51;97804.88;1652053;85;28128;-91
2021/06/20 11:26:57;;;;;;;5.35;4.85;;;;;;;30.78;46.37;97803.01;1681852;83;28096;-90
2021/06/20 11:29:38;;;;;;;6.40;5.08;;;;;;;30.80;46.35;97788.73;1682946;82;28116;-91
2021/06/20 11:32:07;;;;;;;5.92;5.22;;;;;;;30.90;46.47;97780.20;1685971;84;28170;-90
2021/06/20 11:34:34;;;;;;;5.33;4.35;;;;;;;30.93;46.48;97778.33;1678886;84;28090;-90
2021/06/20 11:37:03;;;;;;;5.40;4.90;;;;;;;30.88;46.29;97783.68;1688619;83;28153;-89
2021/06/20 11:39:35;;;;;;;5.53;4.87;;;;;;;30.72;45.98;97781.34;1653004;85;28006;-90
2021/06/20 11:42:01;;;;;;;6.70;3.58;;;;;;;30.69;45.91;97779.15;1657414;84;28072;-90
2021/06/20 11:44:28;;;;;;;6.67;4.78;;;;;;;30.72;45.87;97779.16;1648396;84;28029;-89